Time;durP1;ratioP1;P1;durP2;ratioP2;P2;SDS_P1;SDS_P2;PMS_P1;PMS_P2;Temp;Humidity;BMP_temperature;BMP_pressure;BME280_temperature;BME280_humidity;BME280_pressure;Samples;Min_cycle;Max_cycle;Signal;HPM_P1;HPM_P2
2023/08/06 00:00:17;;;;;;;;;;;;;;;16.92;77.59;97260.97;5108833;27;19924;-65
2023/08/06 00:03:05;;;;;;;;;;;;;;;17.05;76.95;97263.53;5095377;27;19927;-67
2023/08/06 00:05:54;;;;;;;;;;;;;;;16.92;77.53;97265.66;5120898;27;19980;-67
2023/08/06 00:08:42;;;;;;;;;;;;;;;16.89;77.18;97263.69;5105377;27;19924;-67
2023/08/06 00:11:30;;;;;;;;;;;;;;;16.84;76.29;97266.72;5099387;27;20373;-65
2023/08/06 00:14:20;;;;;;;;;;;;;;;16.80;77.31;97258.44;5082143;28;19928;-66
2023/08/06 00:17:10;;;;;;;;;;;;;;;16.73;76.51;97259.13;5104543;27;19942;-65
2023/08/06 00:20:04;;;;;;;;;;;;;;;16.83;76.35;97257.72;5111460;27;19931;-64
2023/08/06 00:22:52;;;;;;;;;;;;;;;16.65;76.76;97249.16;5117563;27;19927;-66
2023/08/06 00:25:40;;;;;;;;;;;;;;;16.76;77.06;97246.59;5114046;27;19982;-67
2023/08/06 00:28:28;;;;;;;;;;;;;;;16.69;77.17;97247.25;5133931;27;20019;-65
2023/08/06 00:31:16;;;;;;;;;;;;;;;16.63;77.47;97242.47;5107340;27;20400;-66
2023/08/06 00:34:05;;;;;;;;;;;;;;;16.42;78.23;97229.19;5116954;27;19927;-64
2023/08/06 00:36:54;;;;;;;;;;;;;;;16.47;78.86;97223.41;5105445;27;20489;-67
2023/08/06 00:39:42;;;;;;;;;;;;;;;16.47;78.58;97212.44;5105838;27;19939;-64
2023/08/06 00:42:30;;;;;;;;;;;;;;;16.53;78.55;97204.69;5111368;27;19931;-64
2023/08/06 00:45:18;;;;;;;;;;;;;;;16.58;78.70;97191.44;5123520;27;19938;-64
2023/08/06 00:48:07;;;;;;;;;;;;;;;16.55;78.01;97192.19;5115184;27;19927;-65
2023/08/06 00:50:56;;;;;;;;;;;;;;;16.54;79.00;97198.81;5102715;27;19927;-65
2023/08/06 00:53:45;;;;;;;;;;;;;;;16.36;79.86;97201.28;5103478;27;19934;-66
2023/08/06 00:56:33;;;;;;;;;;;;;;;16.40;79.45;97201.31;5127723;27;19935;-67
2023/08/06 00:59:21;;;;;;;;;;;;;;;16.43;79.59;97206.09;5100542;27;19928;-65
2023/08/06 01:02:10;;;;;;;;;;;;;;;16.36;79.92;97208.72;5130656;27;19924;-65
2023/08/06 01:04:58;;;;;;;;;;;;;;;16.41;79.65;97211.16;5133981;27;20379;-65
2023/08/06 01:07:50;;;;;;;;;;;;;;;16.31;80.23;97203.53;5106507;27;19927;-65
2023/08/06 01:10:41;;;;;;;;;;;;;;;16.37;80.32;97204.81;5106069;27;19931;-66
2023/08/06 01:13:31;;;;;;;;;;;;;;;16.35;80.12;97209.84;5100811;27;19931;-65
2023/08/06 01:16:20;;;;;;;;;;;;;;;16.37;81.19;97218.53;5123286;27;19935;-64
2023/08/06 01:19:16;;;;;;;;;;;;;;;16.32;80.16;97218.81;5114142;27;19923;-65
2023/08/06 01:22:06;;;;;;;;;;;;;;;16.23;80.23;97200.66;5120064;27;20083;-66
2023/08/06 01:24:54;;;;;;;;;;;;;;;16.33;79.51;97203.97;5116009;27;19931;-67
2023/08/06 01:27:44;;;;;;;;;;;;;;;16.21;79.90;97202.19;5120069;27;20018;-66
2023/08/06 01:30:35;;;;;;;;;;;;;;;16.17;80.02;97198.59;5120364;28;19924;-64
2023/08/06 01:33:26;;;;;;;;;;;;;;;16.16;79.88;97197.81;5100576;28;19924;-64
2023/08/06 01:36:14;;;;;;;;;;;;;;;16.18;80.08;97190.00;5130644;27;19932;-67
2023/08/06 01:39:04;;;;;;;;;;;;;;;16.18;79.64;97178.25;5098947;28;19969;-68
2023/08/06 01:41:52;;;;;;;;;;;;;;;16.13;79.30;97173.06;5119142;27;20562;-64
2023/08/06 01:44:41;;;;;;;;;;;;;;;16.20;78.74;97179.47;5127945;27;20343;-66
2023/08/06 01:47:29;;;;;;;;;;;;;;;16.07;79.49;97172.59;5134352;27;20027;-65
2023/08/06 01:50:18;;;;;;;;;;;;;;;16.06;78.52;97168.28;5119308;28;19962;-64
2023/08/06 01:53:08;;;;;;;;;;;;;;;16.09;79.25;97173.03;5126289;27;19935;-65
2023/08/06 01:55:58;;;;;;;;;;;;;;;16.06;78.43;97165.53;5115896;27;20128;-65
2023/08/06 01:58:46;;;;;;;;;;;;;;;16.05;78.33;97168.66;5104872;28;20402;-65
2023/08/06 02:01:34;;;;;;;;;;;;;;;16.01;78.71;97167.78;5108736;28;19927;-67
2023/08/06 02:04:23;;;;;;;;;;;;;;;15.93;77.52;97172.34;5130063;27;19939;-66
2023/08/06 02:07:11;;;;;;;;;;;;;;;15.96;77.97;97169.66;5128667;27;19934;-66
2023/08/06 02:09:59;;;;;;;;;;;;;;;16.01;78.04;97167.78;5100967;28;19930;-66
2023/08/06 02:12:49;;;;;;;;;;;;;;;15.93;78.41;97162.19;5115345;28;19927;-66
2023/08/06 02:15:42;;;;;;;;;;;;;;;16.03;78.88;97163.50;5130909;27;20505;-64
2023/08/06 02:18:30;;;;;;;;;;;;;;;15.98;77.53;97161.88;5111915;28;20632;-68
2023/08/06 02:21:19;;;;;;;;;;;;;;;15.96;78.73;97155.19;5103003;28;19992;-65
2023/08/06 02:24:08;;;;;;;;;;;;;;;16.00;77.93;97147.81;5101693;28;19927;-68
2023/08/06 02:26:56;;;;;;;;;;;;;;;15.99;75.90;97157.19;5113736;28;19931;-65
2023/08/06 02:29:46;;;;;;;;;;;;;;;15.96;76.97;97155.97;5105289;28;19963;-67
2023/08/06 02:32:35;;;;;;;;;;;;;;;15.89;76.23;97149.56;5119570;28;20598;-65
2023/08/06 02:35:23;;;;;;;;;;;;;;;15.88;76.88;97151.53;5103496;27;19931;-66
2023/08/06 02:38:11;;;;;;;;;;;;;;;15.89;76.52;97149.56;5104350;28;19938;-65
2023/08/06 02:41:03;;;;;;;;;;;;;;;15.85;75.80;97151.47;5134885;27;19935;-64
2023/08/06 02:43:51;;;;;;;;;;;;;;;15.98;75.60;97147.41;5127861;27;19940;-67
2023/08/06 02:46:40;;;;;;;;;;;;;;;16.00;76.47;97141.53;5124657;27;19928;-65
2023/08/06 02:49:29;;;;;;;;;;;;;;;15.96;76.07;97123.09;5109985;27;19931;-65
2023/08/06 02:52:18;;;;;;;;;;;;;;;15.99;76.99;97116.09;5106222;27;20442;-65
2023/08/06 02:55:06;;;;;;;;;;;;;;;16.04;77.17;97112.28;5103372;27;19923;-65
2023/08/06 02:57:57;;;;;;;;;;;;;;;15.96;78.07;97116.81;5138849;27;19934;-65
2023/08/06 03:00:45;;;;;;;;;;;;;;;15.98;77.15;97122.75;5109257;27;20273;-66
2023/08/06 03:03:37;;;;;;;;;;;;;;;15.90;77.49;97118.28;5134832;27;19923;-65
2023/08/06 03:06:27;;;;;;;;;;;;;;;15.81;78.43;97126.72;5108514;27;19927;-66
2023/08/06 03:09:18;;;;;;;;;;;;;;;15.83;78.29;97118.19;5107618;27;20050;-64
2023/08/06 03:12:09;;;;;;;;;;;;;;;15.90;78.52;97113.59;5100701;27;19924;-64
2023/08/06 03:14:58;;;;;;;;;;;;;;;15.77;77.60;97112.22;5102304;27;20044;-65
2023/08/06 03:17:47;;;;;;;;;;;;;;;15.95;78.04;97116.03;5134565;27;19932;-65
2023/08/06 03:20:39;;;;;;;;;;;;;;;15.94;78.74;97108.97;5107366;27;19934;-66
2023/08/06 03:23:28;;;;;;;;;;;;;;;16.05;78.47;97109.16;5106245;27;20018;-66
2023/08/06 03:26:16;;;;;;;;;;;;;;;16.13;78.59;97104.56;5133128;27;19975;-66
2023/08/06 03:29:05;;;;;;;;;;;;;;;15.97;79.08;97100.00;5117980;27;19923;-65
2023/08/06 03:31:55;;;;;;;;;;;;;;;15.98;79.30;97098.09;5109408;27;19923;-65
2023/08/06 03:34:44;;;;;;;;;;;;;;;15.93;79.35;97090.97;5102244;27;19935;-65
2023/08/06 03:37:33;;;;;;;;;;;;;;;16.02;79.50;97087.97;5107776;27;19928;-67
2023/08/06 03:40:21;;;;;;;;;;;;;;;15.95;79.96;97085.13;5131047;27;19923;-65
2023/08/06 03:43:10;;;;;;;;;;;;;;;16.01;79.75;97080.91;5108100;27;19923;-65
2023/08/06 03:45:58;;;;;;;;;;;;;;;15.97;80.11;97080.03;5120182;27;19931;-64
2023/08/06 03:48:47;;;;;;;;;;;;;;;16.02;79.49;97071.53;5137784;27;19927;-65
2023/08/06 03:51:35;;;;;;;;;;;;;;;16.04;79.10;97069.22;5133870;27;19924;-67
2023/08/06 03:54:25;;;;;;;;;;;;;;;15.79;79.99;97073.50;5128809;27;20552;-65
2023/08/06 03:57:13;;;;;;;;;;;;;;;15.96;79.49;97078.47;5104657;27;20300;-65
2023/08/06 04:00:01;;;;;;;;;;;;;;;16.00;78.81;97068.38;5104743;27;20005;-65
2023/08/06 04:02:50;;;;;;;;;;;;;;;16.01;78.73;97067.19;5118862;27;19934;-66
2023/08/06 04:05:38;;;;;;;;;;;;;;;15.86;79.09;97073.59;5138303;27;20006;-66
2023/08/06 04:08:26;;;;;;;;;;;;;;;15.97;78.88;97077.31;5105038;27;19931;-65
2023/08/06 04:11:16;;;;;;;;;;;;;;;15.88;79.08;97074.84;5107338;27;19928;-64
2023/08/06 04:14:05;;;;;;;;;;;;;;;15.71;79.72;97080.78;5104641;27;19980;-65
2023/08/06 04:16:53;;;;;;;;;;;;;;;15.79;79.09;97073.50;5143093;27;19923;-65
2023/08/06 04:19:41;;;;;;;;;;;;;;;15.82;78.89;97072.75;5117140;27;19955;-65
2023/08/06 04:22:30;;;;;;;;;;;;;;;15.71;79.53;97078.84;5135729;27;19942;-66
2023/08/06 04:25:20;;;;;;;;;;;;;;;15.67;79.54;97079.94;5102447;27;20429;-65
2023/08/06 04:28:10;;;;;;;;;;;;;;;15.73;79.31;97085.91;5135285;27;19930;-66
2023/08/06 04:30:59;;;;;;;;;;;;;;;15.81;79.33;97073.91;5127102;27;20327;-65
2023/08/06 04:33:52;;;;;;;;;;;;;;;15.60;79.93;97077.81;5137177;27;19923;-67
2023/08/06 04:36:40;;;;;;;;;;;;;;;15.62;79.42;97075.53;5102813;27;20410;-66
2023/08/06 04:39:30;;;;;;;;;;;;;;;15.60;80.15;97077.81;5130877;27;19923;-66
2023/08/06 04:42:18;;;;;;;;;;;;;;;15.57;80.21;97075.84;5131579;27;19923;-64
2023/08/06 04:45:10;;;;;;;;;;;;;;;15.68;80.00;97079.56;5119176;27;19923;-64
2023/08/06 04:47:58;;;;;;;;;;;;;;;15.77;79.51;97078.56;5120591;27;19938;-66
2023/08/06 04:50:46;;;;;;;;;;;;;;;15.64;79.73;97078.72;5125532;27;19923;-65
2023/08/06 04:53:35;;;;;;;;;;;;;;;15.61;80.00;97078.63;5114276;27;20425;-65
2023/08/06 04:56:23;;;;;;;;;;;;;;;15.64;79.49;97075.97;5122998;27;20011;-65
2023/08/06 04:59:11;;;;;;;;;;;;;;;15.61;79.14;97079.44;5118757;27;19982;-65
2023/08/06 05:02:01;;;;;;;;;;;;;;;15.66;78.99;97075.63;5099761;27;20394;-65
2023/08/06 05:04:49;;;;;;;;;;;;;;;15.66;78.96;97070.94;5121020;27;19931;-66
2023/08/06 05:07:37;;;;;;;;;;;;;;;15.70;78.78;97060.81;5110404;27;19934;-67
2023/08/06 05:10:25;;;;;;;;;;;;;;;15.71;78.69;97064.34;5115505;27;20436;-65
2023/08/06 05:13:13;;;;;;;;;;;;;;;15.60;79.28;97071.56;5122194;27;19974;-64
2023/08/06 05:16:01;;;;;;;;;;;;;;;15.56;79.59;97062.50;5117233;27;19963;-66
2023/08/06 05:18:51;;;;;;;;;;;;;;;15.70;79.39;97071.78;5123632;27;20550;-66
2023/08/06 05:21:39;;;;;;;;;;;;;;;15.76;79.45;97066.78;5123696;27;20474;-65
2023/08/06 05:24:28;;;;;;;;;;;;;;;15.81;79.56;97066.47;5120566;27;19931;-65
2023/08/06 05:27:18;;;;;;;;;;;;;;;15.67;79.82;97069.78;5111815;27;19930;-64
2023/08/06 05:30:07;;;;;;;;;;;;;;;15.72;80.51;97071.44;5113382;28;19927;-66
2023/08/06 05:32:56;;;;;;;;;;;;;;;15.78;80.45;97064.50;5107644;28;19927;-66
2023/08/06 05:35:45;;;;;;;;;;;;;;;15.79;80.55;97057.84;5122140;27;20272;-67
2023/08/06 05:38:33;;;;;;;;;;;;;;;15.80;80.60;97061.38;5120304;28;19936;-64
2023/08/06 05:41:22;;;;;;;;;;;;;;;15.92;80.17;97053.75;5121477;28;19935;-66
2023/08/06 05:44:09;;;;;;;;;;;;;;;15.81;80.60;97058.25;5102220;28;19941;-66
2023/08/06 05:46:58;;;;;;;;;;;;;;;15.87;80.58;97059.56;5116626;28;19924;-66
2023/08/06 05:49:49;;;;;;;;;;;;;;;15.76;81.11;97063.25;5129505;27;20389;-65
2023/08/06 05:52:40;;;;;;;;;;;;;;;15.87;80.87;97061.47;5121825;28;19938;-67
2023/08/06 05:55:29;;;;;;;;;;;;;;;15.78;80.19;97056.28;5106109;28;19923;-64
2023/08/06 05:58:17;;;;;;;;;;;;;;;15.76;80.60;97052.31;5123446;27;19928;-67
2023/08/06 06:01:05;;;;;;;;;;;;;;;15.70;80.42;97055.34;5117861;28;20011;-65
2023/08/06 06:03:54;;;;;;;;;;;;;;;15.79;80.36;97052.38;5118385;28;19923;-65
2023/08/06 06:06:42;;;;;;;;;;;;;;;15.82;80.68;97054.38;5119268;27;19931;-66
2023/08/06 06:09:31;;;;;;;;;;;;;;;15.88;80.26;97057.63;5115169;27;19930;-65
2023/08/06 06:12:22;;;;;;;;;;;;;;;16.00;79.59;97056.63;5116862;28;20241;-66
2023/08/06 06:15:10;;;;;;;;;;;;;;;16.08;79.16;97056.34;5122490;28;19931;-66
2023/08/06 06:17:59;;;;;;;;;;;;;;;16.04;78.76;97047.31;5119613;27;19970;-64
2023/08/06 06:20:47;;;;;;;;;;;;;;;16.13;79.04;97056.03;5102978;28;20276;-64
2023/08/06 06:23:35;;;;;;;;;;;;;;;16.20;79.03;97053.41;5100712;28;19928;-70
2023/08/06 06:26:25;;;;;;;;;;;;;;;16.28;79.03;97051.56;5100134;28;19924;-66
2023/08/06 06:29:13;;;;;;;;;;;;;;;16.33;78.45;97045.75;5104253;27;19928;-65
2023/08/06 06:32:01;;;;;;;;;;;;;;;16.31;79.09;97055.53;5097078;28;19924;-66
2023/08/06 06:34:49;;;;;;;;;;;;;;;16.33;78.63;97050.47;5095189;28;19942;-64
2023/08/06 06:37:38;;;;;;;;;;;;;;;16.22;78.21;97050.31;5096978;28;20064;-67
2023/08/06 06:40:26;;;;;;;;;;;;;;;16.28;78.58;97046.09;5104712;28;19981;-64
2023/08/06 06:43:16;;;;;;;;;;;;;;;16.27;78.55;97057.41;5098752;28;19928;-65
2023/08/06 06:46:04;;;;;;;;;;;;;;;16.28;78.56;97056.25;5101597;27;19934;-66
2023/08/06 06:48:52;;;;;;;;;;;;;;;16.26;78.38;97047.63;5104548;27;20427;-63
2023/08/06 06:51:43;;;;;;;;;;;;;;;16.28;78.65;97048.03;5104388;27;21765;-61
2023/08/06 06:54:31;;;;;;;;;;;;;;;16.25;78.01;97049.56;5083271;28;19930;-62
2023/08/06 06:57:19;;;;;;;;;;;;;;;16.27;78.66;97049.19;5095851;28;20369;-61
2023/08/06 07:00:09;;;;;;;;;;;;;;;16.31;78.34;97044.56;5097605;28;19943;-62
2023/08/06 07:02:58;;;;;;;;;;;;;;;16.28;78.93;97043.34;5091670;28;20014;-61
2023/08/06 07:05:46;;;;;;;;;;;;;;;16.39;78.50;97038.78;5093257;28;19928;-60
2023/08/06 07:08:34;;;;;;;;;;;;;;;16.38;78.07;97042.72;5091161;28;20403;-61
2023/08/06 07:11:22;;;;;;;;;;;;;;;16.48;79.01;97052.25;5091279;28;20709;-61
2023/08/06 07:14:11;;;;;;;;;;;;;;;16.50;78.92;97042.47;5090903;28;19965;-62
2023/08/06 07:17:01;;;;;;;;;;;;;;;16.58;78.46;97048.84;5096070;28;19931;-64
2023/08/06 07:19:49;;;;;;;;;;;;;;;16.65;78.20;97048.16;5104145;27;19945;-60
2023/08/06 07:22:37;;;;;;;;;;;;;;;16.64;77.49;97046.59;5113538;27;19942;-60
2023/08/06 07:25:25;;;;;;;;;;;;;;;16.65;78.22;97042.69;5114444;27;19946;-61
2023/08/06 07:28:13;;;;;;;;;;;;;;;16.58;77.41;97050.81;5129410;27;19938;-60
2023/08/06 07:31:03;;;;;;;;;;;;;;;16.55;76.51;97049.59;5116497;27;19927;-61
2023/08/06 07:33:56;;;;;;;;;;;;;;;16.55;77.40;97055.06;5113896;27;20554;-60
2023/08/06 07:36:44;;;;;;;;;;;;;;;16.54;76.73;97048.00;5107750;27;19924;-60
2023/08/06 07:39:33;;;;;;;;;;;;;;;16.60;76.89;97046.53;5113523;27;19927;-60
2023/08/06 07:42:21;;;;;;;;;;;;;;;16.57;76.00;97046.50;5117642;27;19932;-60
2023/08/06 07:45:10;;;;;;;;;;;;;;;16.56;76.42;97045.69;5111239;27;21092;-60
2023/08/06 07:47:58;;;;;;;;;;;;;;;16.62;76.71;97033.25;5112868;27;20280;-60
2023/08/06 07:50:51;;;;;;;;;;;;;;;16.62;76.82;97027.78;5113155;27;19932;-60
2023/08/06 07:53:39;;;;;;;;;;;;;;;16.72;76.55;97027.16;5112611;27;19931;-60
2023/08/06 07:56:27;;;;;;;;;;;;;;;16.80;75.38;97028.00;5110460;27;19976;-61
2023/08/06 07:59:16;;;;;;;;;;;;;;;16.91;75.60;97020.69;5108471;27;19931;-60
2023/08/06 08:02:05;;;;;;;;;;;;;;;16.91;73.40;97017.16;5105519;27;19934;-59
2023/08/06 08:04:53;;;;;;;;;;;;;;;16.91;72.54;97012.47;5110449;27;19930;-61
2023/08/06 08:07:44;;;;;;;;;;;;;;;16.84;72.54;97017.09;5096162;27;20873;-61
2023/08/06 08:10:32;;;;;;;;;;;;;;;16.93;72.44;97009.34;5113000;27;19938;-60
2023/08/06 08:13:20;;;;;;;;;;;;;;;16.99;72.85;97007.84;5111852;27;19927;-61
2023/08/06 08:16:08;;;;;;;;;;;;;;;16.97;71.89;97004.69;5114016;27;19930;-61
2023/08/06 08:18:56;;;;;;;;;;;;;;;17.09;72.55;97009.13;5110115;27;19960;-60
2023/08/06 08:21:45;;;;;;;;;;;;;;;17.04;73.27;97023.97;5120422;27;19924;-60
2023/08/06 08:24:35;;;;;;;;;;;;;;;16.81;73.85;97009.59;5122113;27;20551;-60
2023/08/06 08:27:23;;;;;;;;;;;;;;;16.67;73.34;97019.22;5124074;27;20416;-60
2023/08/06 08:30:11;;;;;;;;;;;;;;;16.52;71.87;97011.19;5100755;27;19931;-59
2023/08/06 08:32:59;;;;;;;;;;;;;;;16.41;71.83;97011.81;5122399;27;19935;-60
2023/08/06 08:35:48;;;;;;;;;;;;;;;16.39;73.07;97007.84;5123252;27;19930;-61
2023/08/06 08:38:36;;;;;;;;;;;;;;;16.40;72.76;97020.41;5114217;27;20018;-60
2023/08/06 08:41:26;;;;;;;;;;;;;;;16.38;72.62;97018.03;5105093;27;19928;-60
2023/08/06 08:44:14;;;;;;;;;;;;;;;16.48;74.01;97011.91;5115963;27;19966;-60
2023/08/06 08:47:02;;;;;;;;;;;;;;;16.53;73.39;97016.28;5113361;27;19942;-62
2023/08/06 08:49:53;;;;;;;;;;;;;;;16.70;73.27;97021.19;5120471;27;19924;-60
2023/08/06 08:52:41;;;;;;;;;;;;;;;16.75;73.32;97023.63;5123332;27;20077;-60
2023/08/06 08:55:30;;;;;;;;;;;;;;;16.70;71.07;97015.72;5122923;27;20555;-60
2023/08/06 08:58:20;;;;;;;;;;;;;;;16.59;69.48;97012.03;5121364;27;19928;-61
2023/08/06 09:01:08;;;;;;;;;;;;;;;16.64;71.24;97022.69;5101857;27;20427;-60
2023/08/06 09:03:56;;;;;;;;;;;;;;;16.72;71.94;97021.66;5103828;27;19983;-59
2023/08/06 09:06:46;;;;;;;;;;;;;;;16.76;70.85;97016.97;5118898;27;19927;-60
2023/08/06 09:09:36;;;;;;;;;;;;;;;16.83;72.32;97013.56;5122702;27;20284;-60
2023/08/06 09:12:25;;;;;;;;;;;;;;;16.80;71.96;97011.56;5117512;27;19938;-59
2023/08/06 09:15:14;;;;;;;;;;;;;;;16.80;73.52;97016.25;5115498;27;19931;-61
2023/08/06 09:18:09;;;;;;;;;;;;;;;16.87;74.33;97022.59;5117929;27;19928;-61
2023/08/06 09:20:57;;;;;;;;;;;;;;;16.91;73.47;97022.66;5101539;28;19928;-58
2023/08/06 09:23:45;;;;;;;;;;;;;;;16.86;72.33;97018.28;5098975;27;19924;-58
2023/08/06 09:26:34;;;;;;;;;;;;;;;17.05;73.92;97022.81;5097247;27;20014;-60
2023/08/06 09:29:22;;;;;;;;;;;;;;;17.03;70.53;97019.66;5103523;27;19957;-60
2023/08/06 09:32:12;;;;;;;;;;;;;;;17.04;69.63;97010.25;5097600;28;19928;-60
2023/08/06 09:35:01;;;;;;;;;;;;;;;17.01;68.65;97005.53;5082705;28;19928;-59
2023/08/06 09:37:49;;;;;;;;;;;;;;;17.11;70.41;97007.59;5099045;28;19923;-59
2023/08/06 09:40:37;;;;;;;;;;;;;;;17.01;67.95;97008.28;5101270;28;20021;-59
2023/08/06 09:43:25;;;;;;;;;;;;;;;17.11;69.69;97004.84;5104415;28;19935;-60
2023/08/06 09:46:16;;;;;;;;;;;;;;;17.11;68.72;97007.59;5100344;28;19928;-60
2023/08/06 09:49:08;;;;;;;;;;;;;;;17.08;69.42;97011.06;5100784;28;19934;-60
2023/08/06 09:51:58;;;;;;;;;;;;;;;17.02;68.75;97007.09;5098070;28;19927;-58
2023/08/06 09:54:46;;;;;;;;;;;;;;;17.02;69.51;97001.59;5103205;27;19927;-59
2023/08/06 09:57:34;;;;;;;;;;;;;;;17.06;70.03;97005.19;5097792;27;19935;-59
2023/08/06 10:00:23;;;;;;;;;;;;;;;17.03;70.19;97014.16;5100215;28;20040;-60
2023/08/06 10:03:13;;;;;;;;;;;;;;;17.01;69.64;96994.56;5100131;27;19935;-59
2023/08/06 10:06:06;;;;;;;;;;;;;;;17.06;69.93;96996.16;5104708;27;19987;-59
2023/08/06 10:08:54;;;;;;;;;;;;;;;17.08;69.35;96991.09;5107404;27;19955;-59
2023/08/06 10:11:43;;;;;;;;;;;;;;;17.03;68.42;96997.69;5086235;28;19923;-59
2023/08/06 10:14:33;;;;;;;;;;;;;;;17.05;69.61;97000.09;5102253;27;19931;-59
2023/08/06 10:17:21;;;;;;;;;;;;;;;16.99;68.13;96997.69;5104407;27;19923;-58
2023/08/06 10:20:11;;;;;;;;;;;;;;;17.00;66.95;96992.97;5116191;27;20388;-58
2023/08/06 10:23:04;;;;;;;;;;;;;;;17.06;66.95;96977.75;5134787;27;20392;-59
2023/08/06 10:25:55;;;;;;;;;;;;;;;17.14;67.61;96982.13;5130730;27;20067;-59
2023/08/06 10:28:43;;;;;;;;;;;;;;;17.21;66.70;96973.97;5122223;27;19988;-58
2023/08/06 10:31:50;;;;;;;;;;;;;;;17.26;66.96;96975.59;5105252;27;19927;-59
2023/08/06 10:35:03;;;;;;;;;;;;;;;17.25;64.83;96969.28;5123636;27;19932;-58
2023/08/06 10:37:51;;;;;;;;;;;;;;;17.26;64.84;96976.38;5120343;27;19924;-59
2023/08/06 10:40:41;;;;;;;;;;;;;;;17.28;65.36;96974.03;5129582;27;20292;-59
2023/08/06 10:43:30;;;;;;;;;;;;;;;17.35;66.74;96986.25;5120935;27;19927;-59
2023/08/06 10:46:22;;;;;;;;;;;;;;;17.22;64.90;96981.03;5119927;27;20510;-59
2023/08/06 10:49:10;;;;;;;;;;;;;;;17.22;65.54;96975.56;5120732;27;19927;-59
2023/08/06 10:51:59;;;;;;;;;;;;;;;17.22;65.56;96978.31;5118513;27;19924;-60
2023/08/06 10:54:47;;;;;;;;;;;;;;;17.28;66.50;96970.50;5119898;27;20425;-60
2023/08/06 10:57:36;;;;;;;;;;;;;;;17.34;65.46;96970.94;5117531;27;20368;-60
2023/08/06 11:00:25;;;;;;;;;;;;;;;17.35;64.02;96958.81;5123705;27;19930;-59
2023/08/06 11:03:13;;;;;;;;;;;;;;;17.52;64.43;96963.66;5119779;27;19928;-59
2023/08/06 11:06:02;;;;;;;;;;;;;;;17.62;64.78;96960.19;5121114;27;20026;-58
2023/08/06 11:08:51;;;;;;;;;;;;;;;17.60;63.40;96948.03;5127580;27;20458;-59
2023/08/06 11:11:42;;;;;;;;;;;;;;;17.60;64.08;96959.03;5117787;27;19924;-59
2023/08/06 11:14:32;;;;;;;;;;;;;;;17.61;63.88;96949.59;5114286;27;20053;-59
2023/08/06 11:17:21;;;;;;;;;;;;;;;17.64;65.38;96937.88;5116472;27;19932;-58
2023/08/06 11:20:09;;;;;;;;;;;;;;;17.45;64.04;96942.41;5117680;27;20032;-58
2023/08/06 11:22:58;;;;;;;;;;;;;;;17.38;65.97;96958.06;5131544;27;19968;-58
2023/08/06 11:25:46;;;;;;;;;;;;;;;17.32;66.78;96951.34;5116023;27;19927;-59
2023/08/06 11:28:34;;;;;;;;;;;;;;;17.42;67.86;96943.19;5123166;27;20509;-58
2023/08/06 11:31:24;;;;;;;;;;;;;;;17.54;67.65;96940.16;5115502;27;19923;-58
2023/08/06 11:34:12;;;;;;;;;;;;;;;17.66;67.67;96936.31;5134347;27;19959;-59
2023/08/06 11:37:00;;;;;;;;;;;;;;;17.73;67.10;96930.09;5103291;27;20471;-59
2023/08/06 11:39:49;;;;;;;;;;;;;;;17.76;66.91;96930.13;5120856;27;19935;-59
2023/08/06 11:42:37;;;;;;;;;;;;;;;17.56;67.33;96939.75;5121859;27;19939;-58
2023/08/06 11:45:26;;;;;;;;;;;;;;;17.45;66.79;96947.13;5131476;27;19930;-59
2023/08/06 11:48:16;;;;;;;;;;;;;;;17.47;67.27;96940.09;5106702;27;20414;-58
2023/08/06 11:51:05;;;;;;;;;;;;;;;17.53;66.44;96944.06;5120662;27;19975;-59
2023/08/06 11:53:56;;;;;;;;;;;;;;;17.61;66.96;96931.16;5102033;27;19924;-58
2023/08/06 11:56:44;;;;;;;;;;;;;;;17.66;65.02;96927.28;5121942;27;20331;-58
2023/08/06 11:59:32;;;;;;;;;;;;;;;17.69;65.90;96924.56;5123355;27;19928;-58
2023/08/06 12:02:23;;;;;;;;;;;;;;;17.84;64.74;96921.94;5121974;27;21525;-59
2023/08/06 12:05:13;;;;;;;;;;;;;;;17.87;66.23;96916.47;5116380;27;19927;-58
2023/08/06 12:08:02;;;;;;;;;;;;;;;17.85;65.11;96926.28;5122067;27;19923;-59
2023/08/06 12:10:53;;;;;;;;;;;;;;;17.74;66.02;96937.97;5117255;27;19932;-60
2023/08/06 12:13:41;;;;;;;;;;;;;;;17.67;69.10;96951.63;5117313;27;19928;-59
2023/08/06 12:16:30;;;;;;;;;;;;;;;17.41;73.31;96946.31;5121588;27;19934;-58
2023/08/06 12:19:18;;;;;;;;;;;;;;;17.25;73.80;96960.28;5108110;27;19931;-58
2023/08/06 12:22:08;;;;;;;;;;;;;;;17.11;74.21;96954.66;5096344;28;19931;-58
2023/08/06 12:24:58;;;;;;;;;;;;;;;17.03;75.00;96954.56;5108725;27;19981;-58
2023/08/06 12:27:47;;;;;;;;;;;;;;;16.98;75.58;96949.44;5087830;27;19934;-59
2023/08/06 12:30:35;;;;;;;;;;;;;;;17.04;76.09;96944.38;5097396;27;19977;-60
2023/08/06 12:33:23;;;;;;;;;;;;;;;17.01;76.10;96945.94;5104166;27;19931;-58
2023/08/06 12:36:11;;;;;;;;;;;;;;;17.03;75.58;96943.59;5083235;28;19962;-59
2023/08/06 12:39:01;;;;;;;;;;;;;;;17.12;74.26;96946.06;5106539;27;19931;-58
2023/08/06 12:41:50;;;;;;;;;;;;;;;17.20;74.91;96952.38;5110191;27;19956;-59
2023/08/06 12:44:38;;;;;;;;;;;;;;;17.26;73.76;96934.44;5098975;27;19931;-59
2023/08/06 12:47:26;;;;;;;;;;;;;;;17.59;75.61;96944.50;5109789;27;20355;-62
2023/08/06 12:50:14;;;;;;;;;;;;;;;17.78;70.88;96960.75;5098188;27;19972;-63
2023/08/06 12:53:04;;;;;;;;;;;;;;;17.72;67.19;96951.28;5104501;27;19934;-65
2023/08/06 12:55:54;;;;;;;;;;;;;;;17.93;66.27;96961.66;5098936;28;19928;-63
2023/08/06 12:58:42;;;;;;;;;;;;;;;18.10;66.88;96942.91;5100693;28;20431;-62
2023/08/06 13:01:30;;;;;;;;;;;;;;;18.08;67.31;96940.53;5105736;27;19939;-63
2023/08/06 13:04:19;;;;;;;;;;;;;;;18.15;66.72;96937.81;5103214;27;19928;-64
2023/08/06 13:07:09;;;;;;;;;;;;;;;18.08;66.70;96934.25;5085599;28;19931;-63
2023/08/06 13:09:58;;;;;;;;;;;;;;;18.23;66.37;96950.44;5104343;27;19923;-64
2023/08/06 13:12:47;;;;;;;;;;;;;;;18.27;67.12;96954.00;5095023;28;19924;-64
2023/08/06 13:15:35;;;;;;;;;;;;;;;18.30;66.31;96960.69;5100594;28;20287;-62
2023/08/06 13:18:24;;;;;;;;;;;;;;;18.06;67.33;96973.91;5110500;27;19928;-63
2023/08/06 13:21:12;;;;;;;;;;;;;;;18.06;67.99;96964.88;5118589;27;20006;-65
2023/08/06 13:24:00;;;;;;;;;;;;;;;18.19;66.98;96968.88;5114198;27;20634;-65
2023/08/06 13:26:48;;;;;;;;;;;;;;;18.23;67.15;96963.41;5113977;27;19934;-65
2023/08/06 13:29:38;;;;;;;;;;;;;;;18.16;67.80;96963.34;5110898;27;20563;-62
2023/08/06 13:32:26;;;;;;;;;;;;;;;18.46;67.19;96972.16;5116850;27;19924;-62
2023/08/06 13:35:14;;;;;;;;;;;;;;;18.39;65.49;96968.59;5123218;27;19924;-62
2023/08/06 13:38:02;;;;;;;;;;;;;;;18.10;66.13;96973.91;5119875;27;19931;-63
2023/08/06 13:40:51;;;;;;;;;;;;;;;17.93;66.60;96988.34;5119929;27;19935;-62
2023/08/06 13:43:39;;;;;;;;;;;;;;;18.05;67.05;96979.78;5100543;28;19924;-62
2023/08/06 13:46:29;;;;;;;;;;;;;;;17.82;67.56;96982.75;5103916;27;19927;-61
2023/08/06 13:49:17;;;;;;;;;;;;;;;17.76;66.64;96990.56;5124095;27;19930;-63
2023/08/06 13:52:05;;;;;;;;;;;;;;;17.68;68.19;96982.63;5121763;27;19927;-62
2023/08/06 13:55:08;;;;;;;;;;;;;;;17.58;66.96;97011.59;5124552;27;19927;-62
2023/08/06 13:57:56;;;;;;;;;;;;;;;17.50;67.94;97012.69;5113377;27;19932;-63
2023/08/06 14:00:46;;;;;;;;;;;;;;;17.68;68.66;97005.38;5104514;27;19988;-65
2023/08/06 14:03:35;;;;;;;;;;;;;;;17.61;68.81;97015.53;5122271;27;20454;-63
2023/08/06 14:06:24;;;;;;;;;;;;;;;17.62;68.53;97017.09;5120440;27;20372;-62
2023/08/06 14:09:14;;;;;;;;;;;;;;;17.57;68.65;97014.69;5119663;27;19923;-63
2023/08/06 14:12:02;;;;;;;;;;;;;;;17.28;69.09;97028.16;5119889;27;20398;-62
2023/08/06 14:14:51;;;;;;;;;;;;;;;17.17;70.08;97028.03;5102613;27;19935;-63
2023/08/06 14:17:39;;;;;;;;;;;;;;;17.00;70.91;97025.91;5122885;27;19923;-63
2023/08/06 14:20:29;;;;;;;;;;;;;;;16.94;71.95;97019.19;5118249;27;20524;-63
2023/08/06 14:23:19;;;;;;;;;;;;;;;17.03;72.25;97036.13;5117991;27;19947;-62
2023/08/06 14:26:07;;;;;;;;;;;;;;;17.01;72.73;97038.44;5119461;27;19927;-63
2023/08/06 14:28:55;;;;;;;;;;;;;;;17.07;72.21;97036.94;5123532;27;19924;-63
2023/08/06 14:31:43;;;;;;;;;;;;;;;16.92;73.41;97043.44;5107150;27;19927;-61
2023/08/06 14:34:32;;;;;;;;;;;;;;;16.78;73.38;97049.56;5114933;27;19931;-62
2023/08/06 14:37:21;;;;;;;;;;;;;;;16.87;72.97;97052.00;5123807;27;20663;-63
2023/08/06 14:40:10;;;;;;;;;;;;;;;16.95;72.17;97048.19;5119882;27;19924;-62